createdAt,value
2023-04-02T00:00:15.018Z,5.97
2023-04-02T00:03:01.509Z,6.30
2023-04-02T00:05:30.997Z,6.18
2023-04-02T00:08:03.096Z,6.55
2023-04-02T00:10:38.578Z,6.05
2023-04-02T00:13:11.176Z,6.20
2023-04-02T00:15:39.233Z,6.20
2023-04-02T00:18:06.676Z,6.70
2023-04-02T00:20:38.620Z,6.82
2023-04-02T00:23:06.684Z,7.32
2023-04-02T00:25:37.399Z,7.13
2023-04-02T00:28:04.674Z,6.67
2023-04-02T00:30:31.068Z,7.28
2023-04-02T00:32:58.029Z,7.32
2023-04-02T00:35:29.411Z,6.35
2023-04-02T00:37:57.186Z,5.93
2023-04-02T00:40:31.597Z,6.43
2023-04-02T00:43:00.537Z,6.15
2023-04-02T00:45:30.863Z,6.38
2023-04-02T00:48:00.580Z,6.63
2023-04-02T00:50:36.128Z,6.80
2023-04-02T00:53:24.068Z,6.63
2023-04-02T00:55:50.499Z,6.55
2023-04-02T00:58:37.377Z,6.55
2023-04-02T01:01:16.712Z,6.45
2023-04-02T01:03:44.318Z,7.10
2023-04-02T01:06:17.049Z,6.43
2023-04-02T01:09:15.885Z,6.47
2023-04-02T01:12:21.248Z,6.57
2023-04-02T01:15:17.324Z,6.13
2023-04-02T01:17:54.551Z,6.20
2023-04-02T01:20:53.744Z,6.40
2023-04-02T01:23:24.784Z,5.78
2023-04-02T01:26:06.318Z,5.97
2023-04-02T01:28:54.814Z,6.13
2023-04-02T01:31:22.590Z,6.32
2023-04-02T01:33:49.217Z,5.23
2023-04-02T01:36:38.442Z,5.68
2023-04-02T01:39:14.341Z,6.15
2023-04-02T01:42:16.012Z,5.95
2023-04-02T01:44:53.170Z,5.80
2023-04-02T01:47:25.595Z,6.77
2023-04-02T01:50:12.887Z,5.90
2023-04-02T01:52:42.203Z,5.45
2023-04-02T01:55:12.995Z,5.50
2023-04-02T01:57:43.353Z,5.15
2023-04-02T02:00:14.789Z,5.83
2023-04-02T02:02:43.172Z,5.53
2023-04-02T02:05:14.635Z,5.78
2023-04-02T02:07:42.050Z,5.93
2023-04-02T02:10:15.627Z,5.50
2023-04-02T02:12:44.528Z,5.10
2023-04-02T02:15:19.962Z,5.95
2023-04-02T02:17:46.560Z,5.55
2023-04-02T02:20:14.196Z,5.55
2023-04-02T02:22:45.716Z,5.82
2023-04-02T02:25:17.025Z,5.37
2023-04-02T02:27:54.864Z,5.30
2023-04-02T02:30:35.217Z,5.50
2023-04-02T02:33:26.206Z,5.50
2023-04-02T02:35:58.687Z,5.38
2023-04-02T02:38:34.195Z,5.53
2023-04-02T02:41:15.421Z,4.80
2023-04-02T02:43:48.456Z,5.63
2023-04-02T02:46:20.371Z,5.20
2023-04-02T02:48:48.010Z,5.43
2023-04-02T02:51:42.245Z,5.00
2023-04-02T02:54:09.186Z,5.30
2023-04-02T02:56:41.682Z,5.10
2023-04-02T02:59:11.320Z,4.75
2023-04-02T03:01:38.295Z,5.10
2023-04-02T03:04:05.095Z,4.50
2023-04-02T03:06:31.751Z,5.50
2023-04-02T03:09:06.774Z,5.57
2023-04-02T03:11:41.299Z,5.80
2023-04-02T03:14:20.418Z,5.55
2023-04-02T03:16:52.472Z,5.93
2023-04-02T03:19:58.365Z,4.88
2023-04-02T03:22:24.763Z,5.22
2023-04-02T03:25:01.837Z,5.18
2023-04-02T03:27:36.629Z,4.63
2023-04-02T03:30:30.560Z,5.50
2023-04-02T03:33:29.601Z,5.28
2023-04-02T03:36:13.041Z,5.82
2023-04-02T03:39:09.585Z,5.35
2023-04-02T03:41:52.825Z,4.63
2023-04-02T03:44:34.807Z,4.97
2023-04-02T03:47:10.408Z,5.65
2023-04-02T03:49:44.026Z,5.05
2023-04-02T03:52:13.437Z,4.82
2023-04-02T03:54:41.102Z,4.45
2023-04-02T03:57:38.482Z,4.30
2023-04-02T04:00:32.690Z,4.90
2023-04-02T04:03:08.207Z,4.50
2023-04-02T04:05:37.853Z,4.85
2023-04-02T04:08:08.154Z,5.13
2023-04-02T04:10:35.499Z,4.40
2023-04-02T04:13:14.032Z,4.90
2023-04-02T04:16:06.546Z,4.65
2023-04-02T04:18:42.528Z,4.38
2023-04-02T04:21:37.339Z,4.97
2023-04-02T04:24:33.012Z,4.60
2023-04-02T04:27:12.754Z,4.97
2023-04-02T04:29:54.148Z,4.22
2023-04-02T04:32:32.083Z,5.00
2023-04-02T04:35:07.850Z,4.80
2023-04-02T04:37:40.976Z,4.23
2023-04-02T04:40:23.802Z,3.95
2023-04-02T04:42:54.190Z,3.80
2023-04-02T04:45:56.124Z,3.88
2023-04-02T04:48:36.591Z,3.67
2023-04-02T04:51:10.448Z,3.53
2023-04-02T04:53:47.622Z,3.90
2023-04-02T04:56:19.826Z,3.40
2023-04-02T04:58:58.550Z,4.10
2023-04-02T05:01:28.392Z,4.03
2023-04-02T05:04:35.577Z,3.70
2023-04-02T05:07:27.381Z,3.40
2023-04-02T05:10:04.116Z,3.17
2023-04-02T05:12:42.250Z,2.78
2023-04-02T05:15:29.430Z,1.70
2023-04-02T05:18:00.915Z,2.20
2023-04-02T05:20:41.186Z,2.38
2023-04-02T05:23:15.631Z,2.45
2023-04-02T05:26:14.562Z,1.83
2023-04-02T05:28:48.179Z,2.22
2023-04-02T05:31:25.894Z,1.57
2023-04-02T05:33:52.888Z,1.48
2023-04-02T05:36:23.558Z,1.58
2023-04-02T05:38:52.001Z,1.77
2023-04-02T05:41:32.324Z,1.30
2023-04-02T05:44:18.331Z,1.43
2023-04-02T05:46:54.301Z,1.35
2023-04-02T05:49:29.060Z,1.50
2023-04-02T05:52:00.847Z,1.50
2023-04-02T05:54:38.115Z,1.50
2023-04-02T05:57:11.496Z,1.13
2023-04-02T05:59:43.904Z,1.50
2023-04-02T06:02:20.482Z,1.00
2023-04-02T06:05:07.367Z,1.40
2023-04-02T06:07:46.574Z,1.33
2023-04-02T06:10:20.692Z,1.07
2023-04-02T06:12:50.006Z,1.27
2023-04-02T06:15:22.651Z,1.13
2023-04-02T06:17:58.756Z,1.10
2023-04-02T06:20:26.314Z,1.50
2023-04-02T06:23:03.777Z,1.07
2023-04-02T06:25:35.846Z,1.25
2023-04-02T06:28:06.635Z,1.23
2023-04-02T06:30:39.369Z,1.50
2023-04-02T06:33:06.179Z,1.90
2023-04-02T06:35:37.198Z,1.50
2023-04-02T06:38:06.865Z,1.45
2023-04-02T06:40:59.032Z,1.60
2023-04-02T06:43:38.002Z,1.90
2023-04-02T06:46:14.051Z,1.50
2023-04-02T06:48:42.403Z,1.83
2023-04-02T06:51:12.873Z,2.00
2023-04-02T06:53:43.218Z,1.80
2023-04-02T06:56:44.650Z,1.98
2023-04-02T06:59:12.720Z,1.52
2023-04-02T07:02:06.639Z,1.53
2023-04-02T07:04:33.428Z,2.00
2023-04-02T07:06:59.956Z,2.35
2023-04-02T07:09:26.710Z,2.05
2023-04-02T07:11:53.094Z,2.40
2023-04-02T07:14:19.536Z,2.50
2023-04-02T07:16:46.504Z,2.50
2023-04-02T07:19:21.794Z,2.40
2023-04-02T07:21:48.428Z,1.95
2023-04-02T07:24:14.818Z,2.05
2023-04-02T07:26:41.882Z,2.67
2023-04-02T07:29:13.472Z,2.90
2023-04-02T07:31:40.846Z,3.08
2023-04-02T07:34:08.542Z,2.90
2023-04-02T07:36:34.958Z,2.42
2023-04-02T07:39:04.924Z,2.47
2023-04-02T07:41:31.421Z,2.67
2023-04-02T07:43:57.903Z,2.78
2023-04-02T07:46:25.757Z,2.72
2023-04-02T07:48:52.179Z,2.42
2023-04-02T07:51:21.418Z,2.33
2023-04-02T07:53:54.786Z,2.90
2023-04-02T07:56:22.854Z,2.55
2023-04-02T07:58:49.479Z,2.83
2023-04-02T08:01:27.202Z,2.70
2023-04-02T08:03:55.626Z,2.80
2023-04-02T08:06:23.226Z,2.40
2023-04-02T08:08:50.480Z,3.00
2023-04-02T08:11:17.271Z,2.58
2023-04-02T08:13:43.857Z,2.30
2023-04-02T08:16:10.602Z,2.70
2023-04-02T08:18:37.129Z,2.95
2023-04-02T08:21:07.776Z,3.50
2023-04-02T08:23:35.070Z,2.78
2023-04-02T08:26:01.792Z,3.05
2023-04-02T08:28:28.292Z,3.20
2023-04-02T08:30:54.796Z,3.13
2023-04-02T08:33:24.150Z,2.97
2023-04-02T08:35:51.211Z,2.13
2023-04-02T08:38:19.994Z,2.15
2023-04-02T08:40:50.476Z,2.20
2023-04-02T08:43:37.476Z,2.20
2023-04-02T08:46:27.168Z,2.50
2023-04-02T08:48:57.878Z,2.35
2023-04-02T08:51:27.238Z,1.92
2023-04-02T08:54:02.878Z,1.93
2023-04-02T08:56:37.314Z,1.95
2023-04-02T08:59:17.645Z,1.70
2023-04-02T09:02:11.677Z,2.15
2023-04-02T09:04:38.625Z,1.58
2023-04-02T09:07:05.314Z,1.93
2023-04-02T09:09:36.900Z,1.98
2023-04-02T09:12:04.602Z,1.70
2023-04-02T09:14:33.672Z,1.60
2023-04-02T09:17:02.620Z,1.40
2023-04-02T09:19:44.448Z,1.17
2023-04-02T09:22:21.374Z,1.83
2023-04-02T09:24:55.593Z,1.42
2023-04-02T09:27:25.713Z,1.20
2023-04-02T09:30:03.963Z,1.60
2023-04-02T09:32:40.059Z,1.03
2023-04-02T09:35:24.589Z,0.60
2023-04-02T09:38:21.906Z,1.20
2023-04-02T09:41:04.645Z,1.08
2023-04-02T09:43:32.523Z,1.10
2023-04-02T09:46:12.759Z,1.20
2023-04-02T09:48:53.289Z,1.35
2023-04-02T09:51:25.552Z,1.27
2023-04-02T09:54:08.762Z,1.20
2023-04-02T09:56:39.949Z,1.58
2023-04-02T09:59:12.494Z,1.03
2023-04-02T10:01:43.910Z,1.05
2023-04-02T10:04:44.385Z,0.82
2023-04-02T10:07:30.731Z,0.60
2023-04-02T10:09:59.317Z,0.60
2023-04-02T10:12:28.887Z,0.67
2023-04-02T10:14:57.740Z,0.80
2023-04-02T10:17:35.982Z,0.63
2023-04-02T10:20:20.175Z,0.80
2023-04-02T10:22:46.894Z,0.68
2023-04-02T10:25:15.455Z,0.77
2023-04-02T10:27:57.178Z,0.70
2023-04-02T10:30:45.297Z,1.05
2023-04-02T10:33:25.145Z,0.73
2023-04-02T10:36:04.102Z,0.55
2023-04-02T10:38:48.925Z,0.60
2023-04-02T10:41:34.185Z,0.70
2023-04-02T10:44:24.673Z,0.80
2023-04-02T10:47:14.845Z,0.68
2023-04-02T10:49:59.697Z,0.75
2023-04-02T10:52:39.344Z,0.77
2023-04-02T10:55:30.141Z,0.98
2023-04-02T10:58:03.024Z,1.30
2023-04-02T11:00:34.523Z,0.98
2023-04-02T11:03:09.215Z,0.88
2023-04-02T11:05:47.656Z,1.10
2023-04-02T11:08:20.892Z,0.90
2023-04-02T11:10:58.450Z,1.00
2023-04-02T11:13:37.191Z,0.60
2023-04-02T11:16:04.148Z,0.90
2023-04-02T11:18:38.706Z,1.07
2023-04-02T11:21:07.987Z,1.15
2023-04-02T11:23:38.667Z,1.27
2023-04-02T11:26:38.676Z,0.80
2023-04-02T11:29:14.114Z,0.80
2023-04-02T11:31:42.043Z,0.60
2023-04-02T11:34:40.755Z,0.60
2023-04-02T11:37:41.080Z,1.00
2023-04-02T11:40:13.977Z,1.15
2023-04-02T11:42:42.320Z,0.68
2023-04-02T11:45:23.607Z,0.77
2023-04-02T11:48:03.804Z,0.80
2023-04-02T11:50:31.885Z,0.60
2023-04-02T11:53:03.464Z,0.90
2023-04-02T11:55:34.935Z,1.02
2023-04-02T11:58:12.980Z,1.30
2023-04-02T12:01:14.967Z,0.90
2023-04-02T12:04:19.046Z,1.00
2023-04-02T12:06:59.951Z,1.20
2023-04-02T12:09:26.713Z,1.10
2023-04-02T12:11:59.927Z,0.93
2023-04-02T12:14:48.395Z,1.55
2023-04-02T12:17:34.700Z,1.30
2023-04-02T12:20:10.462Z,0.90
2023-04-02T12:22:47.591Z,1.00
2023-04-02T12:25:32.139Z,0.77
2023-04-02T12:28:11.012Z,1.23
2023-04-02T12:30:38.630Z,0.80
2023-04-02T12:33:37.322Z,0.95
2023-04-02T12:36:06.767Z,1.52
2023-04-02T12:38:53.912Z,0.80
2023-04-02T12:41:27.159Z,1.00
2023-04-02T12:44:24.001Z,0.85
2023-04-02T12:46:52.213Z,0.98
2023-04-02T12:49:39.935Z,0.60
2023-04-02T12:52:10.689Z,1.07
2023-04-02T12:54:45.655Z,0.80
2023-04-02T12:57:27.489Z,0.90
2023-04-02T12:59:55.561Z,1.00
2023-04-02T13:02:25.281Z,1.45
2023-04-02T13:04:57.377Z,1.07
2023-04-02T13:07:26.276Z,0.90
2023-04-02T13:09:55.573Z,1.05
2023-04-02T13:12:37.228Z,0.88
2023-04-02T13:15:22.089Z,0.85
2023-04-02T13:18:02.785Z,0.70
2023-04-02T13:20:38.146Z,0.93
2023-04-02T13:23:29.641Z,0.90
2023-04-02T13:25:58.876Z,0.98
2023-04-02T13:28:25.519Z,0.98
2023-04-02T13:30:51.937Z,0.87
2023-04-02T13:33:18.821Z,0.82
2023-04-02T13:35:45.527Z,0.80
2023-04-02T13:38:12.091Z,0.68
2023-04-02T13:40:39.130Z,0.75
2023-04-02T13:43:06.544Z,0.60
2023-04-02T13:45:37.760Z,0.90
2023-04-02T13:48:05.756Z,1.30
2023-04-02T13:50:34.239Z,1.33
2023-04-02T13:53:08.369Z,0.80
2023-04-02T13:55:39.928Z,0.63
2023-04-02T13:58:06.560Z,0.60
2023-04-02T14:00:35.886Z,1.00
2023-04-02T14:03:08.057Z,0.60
2023-04-02T14:05:40.530Z,0.70
2023-04-02T14:08:16.620Z,0.57
2023-04-02T14:11:04.881Z,0.70
2023-04-02T14:13:53.257Z,0.60
2023-04-02T14:16:38.713Z,0.50
2023-04-02T14:19:30.118Z,0.70
2023-04-02T14:22:24.339Z,0.40
2023-04-02T14:24:53.783Z,0.63
2023-04-02T14:27:29.369Z,0.90
2023-04-02T14:30:13.904Z,1.00
2023-04-02T14:32:49.028Z,1.00
2023-04-02T14:35:27.673Z,0.83
2023-04-02T14:38:12.948Z,0.80
2023-04-02T14:41:08.712Z,0.70
2023-04-02T14:44:05.962Z,0.80
2023-04-02T14:46:37.362Z,0.50
2023-04-02T14:49:24.806Z,0.70
2023-04-02T14:51:58.725Z,0.70
2023-04-02T14:54:35.992Z,0.70
2023-04-02T14:57:29.671Z,0.70
2023-04-02T15:00:33.666Z,0.85
2023-04-02T15:03:12.219Z,0.70
2023-04-02T15:05:49.807Z,0.70
2023-04-02T15:08:24.375Z,0.90
2023-04-02T15:11:09.566Z,0.50
2023-04-02T15:13:41.986Z,0.70
2023-04-02T15:16:13.586Z,0.60
2023-04-02T15:18:40.074Z,0.70
2023-04-02T15:21:23.420Z,0.80
2023-04-02T15:23:58.968Z,0.50
2023-04-02T15:26:31.606Z,0.63
2023-04-02T15:29:25.847Z,0.50
2023-04-02T15:32:03.330Z,0.43
2023-04-02T15:34:50.485Z,0.43
2023-04-02T15:37:36.773Z,0.60
2023-04-02T15:40:51.723Z,0.55
2023-04-02T15:43:41.047Z,0.50
2023-04-02T15:46:17.237Z,0.85
2023-04-02T15:48:51.326Z,0.55
2023-04-02T15:51:53.340Z,0.60
2023-04-02T15:54:45.973Z,0.85
2023-04-02T15:57:48.983Z,0.57
2023-04-02T16:00:27.853Z,0.70
2023-04-02T16:03:17.361Z,0.68
2023-04-02T16:06:05.198Z,0.85
2023-04-02T16:08:44.916Z,0.80
2023-04-02T16:11:15.119Z,0.83
2023-04-02T16:13:43.176Z,0.60
2023-04-02T16:16:26.847Z,0.60
2023-04-02T16:19:00.723Z,0.73
2023-04-02T16:21:38.542Z,0.70
2023-04-02T16:24:11.510Z,1.00
2023-04-02T16:26:56.856Z,0.57
2023-04-02T16:29:55.847Z,0.90
2023-04-02T16:32:28.392Z,0.50
2023-04-02T16:38:20.710Z,0.60
2023-04-02T16:41:09.285Z,0.50
2023-04-02T16:43:53.590Z,0.60
2023-04-02T16:47:01.825Z,0.60
2023-04-02T16:49:55.765Z,0.70
2023-04-02T16:52:38.114Z,0.60
2023-04-02T16:55:23.311Z,0.68
2023-04-02T16:57:58.816Z,0.68
2023-04-02T17:01:03.236Z,0.47
2023-04-02T17:04:11.330Z,0.70
2023-04-02T17:06:44.814Z,0.63
2023-04-02T17:09:15.585Z,0.70
2023-04-02T17:11:56.882Z,0.70
2023-04-02T17:14:42.088Z,0.60
2023-04-02T17:17:11.539Z,0.95
2023-04-02T17:19:43.661Z,0.50
2023-04-02T17:22:16.813Z,0.90
2023-04-02T17:24:49.758Z,0.98
2023-04-02T17:27:23.607Z,1.15
2023-04-02T17:29:53.150Z,0.80
2023-04-02T17:32:29.879Z,0.87
2023-04-02T17:34:57.774Z,0.93
2023-04-02T17:37:34.901Z,0.90
2023-04-02T17:40:19.914Z,1.00
2023-04-02T17:42:53.520Z,1.00
2023-04-02T17:45:29.365Z,16.70
2023-04-02T17:48:03.387Z,3.85
2023-04-02T17:51:05.854Z,2.42
2023-04-02T17:53:39.813Z,0.90
2023-04-02T17:56:27.706Z,0.80
2023-04-02T17:59:27.794Z,1.10
2023-04-02T18:02:32.833Z,1.90
2023-04-02T18:05:26.843Z,0.73
2023-04-02T18:08:27.385Z,1.02
2023-04-02T18:11:31.396Z,0.80
2023-04-02T18:14:19.371Z,0.87
2023-04-02T18:17:10.723Z,1.08
2023-04-02T18:19:58.443Z,0.90
2023-04-02T18:22:43.323Z,1.20
2023-04-02T18:25:40.897Z,1.60
2023-04-02T18:28:44.982Z,1.30
2023-04-02T18:31:24.219Z,1.83
2023-04-02T18:34:05.617Z,1.27
2023-04-02T18:36:44.339Z,1.00
2023-04-02T18:39:28.859Z,1.17
2023-04-02T18:41:58.260Z,1.13
2023-04-02T18:44:54.637Z,1.20
2023-04-02T18:47:43.380Z,0.98
2023-04-02T18:50:32.548Z,0.90
2023-04-02T18:53:01.561Z,0.75
2023-04-02T18:55:30.307Z,0.90
2023-04-02T18:58:10.844Z,0.70
2023-04-02T19:00:41.296Z,0.70
2023-04-02T19:03:28.029Z,0.70
2023-04-02T19:06:19.131Z,0.85
2023-04-02T19:08:50.249Z,0.83
2023-04-02T19:11:27.393Z,0.80
2023-04-02T19:13:54.464Z,1.10
2023-04-02T19:16:48.078Z,0.60
2023-04-02T19:19:26.981Z,0.70
2023-04-02T19:22:24.513Z,0.83
2023-04-02T19:25:26.614Z,0.40
2023-04-02T19:28:02.649Z,0.60
2023-04-02T19:30:40.598Z,0.68
2023-04-02T19:33:31.772Z,0.70
2023-04-02T19:36:02.184Z,0.47
2023-04-02T19:38:28.558Z,0.82
2023-04-02T19:41:00.696Z,0.55
2023-04-02T19:43:27.267Z,0.63
2023-04-02T19:45:54.515Z,0.65
2023-04-02T19:48:34.967Z,1.13
2023-04-02T19:51:01.717Z,0.90
2023-04-02T19:53:28.135Z,2.28
2023-04-02T19:55:57.114Z,1.75
2023-04-02T19:58:32.097Z,2.00
2023-04-02T20:00:58.781Z,1.50
2023-04-02T20:03:25.362Z,1.13
2023-04-02T20:05:52.594Z,1.10
2023-04-02T20:08:19.205Z,1.20
2023-04-02T20:10:46.012Z,1.17
2023-04-02T20:13:12.778Z,1.30
2023-04-02T20:15:40.329Z,1.38
2023-04-02T20:18:07.109Z,1.55
2023-04-02T20:20:33.861Z,1.58
2023-04-02T20:23:00.782Z,1.35
2023-04-02T20:25:27.289Z,1.07
2023-04-02T20:27:53.913Z,0.70
2023-04-02T20:30:20.556Z,0.50
2023-04-02T20:32:47.256Z,0.70
2023-04-02T20:35:13.667Z,0.90
2023-04-02T20:37:41.851Z,0.57
2023-04-02T20:40:10.014Z,0.60
2023-04-02T20:42:36.553Z,0.50
2023-04-02T20:45:05.101Z,0.50
2023-04-02T20:47:31.597Z,0.50
2023-04-02T20:49:57.982Z,0.50
2023-04-02T20:52:24.434Z,0.55
2023-04-02T20:54:50.990Z,0.30
2023-04-02T20:57:19.579Z,0.60
2023-04-02T20:59:46.370Z,0.50
2023-04-02T21:02:12.944Z,0.73
2023-04-02T21:04:39.402Z,0.82
2023-04-02T21:07:06.173Z,0.40
2023-04-02T21:09:32.651Z,0.50
2023-04-02T21:11:59.174Z,0.43
2023-04-02T21:14:26.089Z,0.40
2023-04-02T21:16:52.627Z,0.68
2023-04-02T21:19:19.026Z,0.32
2023-04-02T21:21:45.594Z,0.40
2023-04-02T21:24:12.023Z,0.45
2023-04-02T21:26:40.475Z,0.30
2023-04-02T21:29:07.279Z,0.30
2023-04-02T21:31:39.463Z,0.30
2023-04-02T21:34:07.544Z,0.38
2023-04-02T21:36:36.572Z,0.30
2023-04-02T21:39:20.059Z,0.30
2023-04-02T21:41:49.974Z,0.52
2023-04-02T21:44:19.340Z,0.50
2023-04-02T21:46:46.576Z,0.40
2023-04-02T21:49:16.420Z,0.20
2023-04-02T21:51:44.486Z,0.30
2023-04-02T21:54:11.227Z,0.40
2023-04-02T21:56:40.638Z,0.43
2023-04-02T21:59:08.921Z,0.50
2023-04-02T22:01:41.637Z,0.60
2023-04-02T22:04:09.323Z,0.30
2023-04-02T22:06:39.513Z,0.30
2023-04-02T22:09:09.566Z,0.70
2023-04-02T22:11:45.412Z,0.30
2023-04-02T22:14:12.388Z,0.45
2023-04-02T22:16:39.725Z,0.30
2023-04-02T22:19:09.353Z,0.60
2023-04-02T22:21:36.767Z,0.43
2023-04-02T22:24:06.286Z,0.93
2023-04-02T22:26:33.795Z,0.40
2023-04-02T22:29:00.775Z,0.40
2023-04-02T22:31:30.137Z,0.35
2023-04-02T22:33:58.034Z,0.40
2023-04-02T22:36:25.846Z,0.52
2023-04-02T22:38:53.079Z,0.28
2023-04-02T22:41:26.244Z,0.50
2023-04-02T22:43:53.384Z,0.65
2023-04-02T22:46:20.781Z,0.40
2023-04-02T22:48:48.449Z,0.30
2023-04-02T22:51:16.954Z,0.30
2023-04-02T22:53:43.742Z,0.40
2023-04-02T22:56:22.045Z,0.30
2023-04-02T22:58:48.931Z,0.30
2023-04-02T23:01:21.850Z,0.50
2023-04-02T23:03:49.328Z,0.40
2023-04-02T23:06:17.702Z,0.40
2023-04-02T23:08:45.592Z,0.30
2023-04-02T23:11:15.155Z,0.40
2023-04-02T23:13:42.622Z,0.60
2023-04-02T23:16:13.028Z,0.60
2023-04-02T23:18:40.884Z,0.50
2023-04-02T23:21:08.553Z,0.45
2023-04-02T23:23:35.872Z,0.50
2023-04-02T23:26:16.007Z,0.43
2023-04-02T23:28:42.563Z,0.52
2023-04-02T23:31:13.004Z,0.50
2023-04-02T23:33:39.664Z,0.30
2023-04-02T23:36:10.202Z,0.40
2023-04-02T23:38:36.867Z,0.30
2023-04-02T23:41:03.704Z,0.30
2023-04-02T23:43:30.358Z,0.30
2023-04-02T23:45:56.940Z,0.20
2023-04-02T23:48:23.559Z,0.52
2023-04-02T23:50:50.056Z,0.45
2023-04-02T23:53:16.923Z,0.45
2023-04-02T23:55:43.422Z,0.50
2023-04-02T23:58:09.883Z,0.40
